Terminal Aerodrome Forecast
Issued by NWS Spokane, WA

Home | Current Version | Previous Version | Text Only | Print | Product List | Glossary On
Versions: 1 2 3 4 5 6 7 8 9 10 11 12 13 14 15 16 17 18 19 20 21 22 23 24 25
000
FTUS46 KOTX 252320
TAFEAT
TAF
KEAT 252320Z 2600/2624 12004KT P6SM BKN200
     FM260500 VRB03KT P6SM BKN080 OVC150
     FM260700 VRB03KT 6SM -SN SCT035 OVC060
     FM261400 12003KT 2SM -SN OVC015=

USA.gov is the U.S. government's official web portal to all federal, state and local government web resources and services.